Mc Intosh, South Dakota
Current Conditions -  °F | °C
As of 8:48 AM on Thursday 30 Oct 2014 (Local Time) from KHEI Reporting Station
Haze Haze  
Wind Chill: 28°   Ceiling: 500
Heat Index: 36°   Visibility: 5mi
Dew Point: 32°   Wind: 12mph
Humidity: 87%   Direction: 330°NNW
Pressure: 30.31"   Gusts: NA
Location:  45.6857°N, 101.624°W
Report Text: KHEI 301448Z AUTO 33010KT 5SM BR OVC005 02/00 A3031 RMK AO2
Loading
Personal Weather Stations






























Interactive Weather Map
Tropical Storm Tracking
New forecast layout! Learn more

10-Day Weather Forecast

Advertisements
Track Severe Weather on mobile